Time;durP1;ratioP1;P1;durP2;ratioP2;P2;SDS_P1;SDS_P2;PMS_P1;PMS_P2;Temp;Humidity;BMP_temperature;BMP_pressure;BME280_temperature;BME280_humidity;BME280_pressure;Samples;Min_cycle;Max_cycle;Signal;HPM_P1;HPM_P2
2021/01/22 00:01:03;;;;;;;59.50;35.00;;;;;;;2.05;58.55;100249.03;5062036;28;20087;-77
2021/01/22 00:03:28;;;;;;;58.90;33.63;;;;;;;1.76;58.59;100204.19;5045285;28;20045;-79
2021/01/22 00:05:55;;;;;;;58.63;33.23;;;;;;;2.06;58.89;100247.25;5062393;28;20283;-77
2021/01/22 00:08:20;;;;;;;58.27;34.50;;;;;;;1.41;58.50;100141.50;5064723;28;20025;-77
2021/01/22 00:10:46;;;;;;;60.37;34.70;;;;;;;1.49;58.73;100161.84;5049273;28;20033;-76
2021/01/22 00:13:11;;;;;;;56.30;33.67;;;;;;;1.76;58.75;100206.78;5066706;28;20025;-77
2021/01/22 00:15:38;;;;;;;52.70;31.83;;;;;;;1.83;58.81;100221.03;5073000;23;20483;-78
2021/01/22 00:18:05;;;;;;;47.60;28.50;;;;;;;1.30;58.59;100145.78;5049472;28;20417;-77
2021/01/22 00:20:32;;;;;;;52.20;31.03;;;;;;;1.98;58.71;100242.59;5066149;28;20416;-77
2021/01/22 00:22:57;;;;;;;53.93;31.13;;;;;;;1.96;58.80;100236.66;5032347;28;20108;-78
2021/01/22 00:25:25;;;;;;;50.30;30.83;;;;;;;1.97;58.54;100258.31;5066865;28;20107;-79
2021/01/22 00:27:50;;;;;;;52.10;32.00;;;;;;;1.92;59.00;100245.63;5048497;28;20047;-77
2021/01/22 00:30:16;;;;;;;48.07;29.77;;;;;;;1.81;59.00;100243.75;5066291;28;20033;-77
2021/01/22 00:32:41;;;;;;;49.53;30.23;;;;;;;1.71;59.17;100253.13;5066575;28;20024;-77
2021/01/22 00:35:08;;;;;;;46.93;29.90;;;;;;;1.53;59.09;100225.75;5073363;23;20079;-77
2021/01/22 00:37:35;;;;;;;47.07;28.93;;;;;;;1.47;59.12;100213.94;5067601;28;20089;-78
2021/01/22 00:40:01;;;;;;;51.03;30.97;;;;;;;1.83;58.99;100254.88;5049787;28;20029;-77
2021/01/22 00:42:27;;;;;;;48.13;29.10;;;;;;;1.85;59.20;100250.41;5072701;23;20132;-77
2021/01/22 00:44:52;;;;;;;51.50;29.73;;;;;;;1.41;58.82;100190.13;5066729;28;20051;-77
2021/01/22 00:47:19;;;;;;;52.20;30.17;;;;;;;1.56;59.22;100215.13;5067123;28;20029;-80
2021/01/22 00:49:44;;;;;;;49.20;30.10;;;;;;;1.14;58.91;100144.22;5066625;28;20025;-76
2021/01/22 00:52:10;;;;;;;67.97;36.93;;;;;;;1.57;58.90;100198.56;5073200;23;20041;-80
2021/01/22 00:54:35;;;;;;;97.70;49.53;;;;;;;1.75;59.17;100225.94;5066367;28;20024;-78
2021/01/22 00:57:00;;;;;;;52.50;33.77;;;;;;;1.84;58.87;100240.09;5065660;28;20419;-77
2021/01/22 00:59:26;;;;;;;44.23;28.63;;;;;;;1.83;59.08;100241.88;5066039;28;20053;-78
2021/01/22 01:01:51;;;;;;;46.47;28.63;;;;;;;1.63;59.06;100198.16;5065884;28;20032;-76
2021/01/22 01:04:17;;;;;;;52.47;30.63;;;;;;;1.47;58.89;100166.28;5048560;28;20029;-76
2021/01/22 01:06:42;;;;;;;51.03;30.93;;;;;;;1.83;58.79;100234.06;5065251;28;20099;-80
2021/01/22 01:09:08;;;;;;;52.27;30.73;;;;;;;1.30;58.97;100144.03;5064806;28;20330;-77
2021/01/22 01:11:35;;;;;;;59.50;34.10;;;;;;;1.83;58.87;100230.63;5064090;28;20106;-76
2021/01/22 01:14:00;;;;;;;49.87;31.03;;;;;;;1.82;59.12;100229.78;5064018;28;20067;-79
2021/01/22 01:16:27;;;;;;;57.37;31.20;;;;;;;1.72;58.86;100207.09;5063875;28;20029;-77
2021/01/22 01:18:52;;;;;;;54.20;30.47;;;;;;;1.74;58.89;100221.69;5063366;28;20040;-76
2021/01/22 01:21:21;;;;;;;47.10;28.27;;;;;;;1.52;59.02;100185.03;5063582;28;20451;-76
2021/01/22 01:23:46;;;;;;;42.80;27.30;;;;;;;1.66;59.17;100213.56;5046238;28;20066;-76
2021/01/22 01:26:12;;;;;;;40.57;26.17;;;;;;;1.58;59.18;100205.44;5064204;28;20059;-76
2021/01/22 01:28:37;;;;;;;43.77;27.10;;;;;;;1.58;59.48;100201.06;5064118;28;20025;-78
2021/01/22 01:31:02;;;;;;;43.60;27.23;;;;;;;1.62;59.24;100196.50;5064004;28;20023;-77
2021/01/22 01:33:28;;;;;;;47.73;28.43;;;;;;;1.40;59.27;100154.63;5063782;28;20063;-76
2021/01/22 01:35:53;;;;;;;49.40;28.20;;;;;;;1.63;59.14;100186.91;5077997;23;20041;-79
2021/01/22 01:38:20;;;;;;;43.63;27.97;;;;;;;1.59;59.32;100184.53;5045949;28;20039;-77
2021/01/22 01:40:46;;;;;;;41.77;26.60;;;;;;;1.61;59.23;100178.38;5063625;28;20029;-76
2021/01/22 01:43:12;;;;;;;42.93;28.47;;;;;;;1.61;59.41;100180.97;5064374;28;20029;-77
2021/01/22 01:45:40;;;;;;;41.80;25.93;;;;;;;1.67;59.13;100184.00;5063352;28;20035;-77
2021/01/22 01:48:11;;;;;;;41.67;26.03;;;;;;;1.56;58.85;100163.06;5031611;28;20033;-76
2021/01/22 01:50:42;;;;;;;42.70;26.03;;;;;;;1.70;59.04;100181.19;5068804;28;20100;-76
2021/01/22 01:53:09;;;;;;;44.53;25.98;;;;;;;1.69;58.99;100171.69;5069458;23;20052;-76
2021/01/22 01:55:35;;;;;;;41.63;26.77;;;;;;;1.67;59.02;100177.97;5049361;23;20096;-76
2021/01/22 01:58:03;;;;;;;41.03;26.13;;;;;;;1.62;58.93;100177.44;5043510;28;20021;-78
2021/01/22 02:00:30;;;;;;;51.80;29.00;;;;;;;0.80;59.29;100057.28;5043144;28;20033;-76
2021/01/22 02:02:56;;;;;;;68.07;36.07;;;;;;;1.33;59.39;100155.97;5043508;28;20379;-76
2021/01/22 02:05:21;;;;;;;62.53;33.87;;;;;;;1.42;59.58;100160.56;5042965;28;20025;-76
2021/01/22 02:07:47;;;;;;;91.23;43.13;;;;;;;1.18;59.55;100135.28;5042384;28;20025;-76
2021/01/22 02:10:14;;;;;;;88.33;39.53;;;;;;;1.31;59.34;100145.69;5055478;23;20065;-77
2021/01/22 02:12:41;;;;;;;70.80;36.70;;;;;;;1.43;59.42;100162.22;5075204;23;20443;-76
2021/01/22 02:15:13;;;;;;;79.50;39.27;;;;;;;1.25;59.28;100135.69;5043599;28;20094;-77
2021/01/22 02:17:41;;;;;;;86.35;43.10;;;;;;;0.63;59.24;100019.41;5061626;28;20053;-77
2021/01/22 02:20:34;;;;;;;85.77;43.77;;;;;;;1.53;59.83;100155.47;5062248;28;20064;-77
2021/01/22 02:23:00;;;;;;;81.10;40.67;;;;;;;1.47;59.14;100137.66;5059988;28;20036;-75
2021/01/22 02:25:36;;;;;;;69.30;35.50;;;;;;;1.56;59.19;100145.69;5057681;28;20029;-75
2021/01/22 02:28:07;;;;;;;65.27;35.63;;;;;;;1.57;59.04;100143.94;5058052;28;20338;-75
2021/01/22 02:30:33;;;;;;;66.40;32.60;;;;;;;1.34;59.12;100103.84;5057273;28;20032;-75
2021/01/22 02:33:00;;;;;;;56.83;33.43;;;;;;;1.56;59.18;100140.50;5058208;28;20037;-76
2021/01/22 02:35:28;;;;;;;59.97;34.00;;;;;;;1.61;59.13;100162.75;5044167;23;20080;-76
2021/01/22 02:37:55;;;;;;;60.67;34.90;;;;;;;1.64;59.07;100158.19;5037174;28;20359;-75
2021/01/22 02:40:22;;;;;;;55.33;33.53;;;;;;;1.45;59.09;100124.75;5036312;28;20026;-76
2021/01/22 02:42:50;;;;;;;59.40;32.90;;;;;;;1.62;59.18;100156.63;5036006;28;20057;-75
2021/01/22 02:45:16;;;;;;;59.83;33.60;;;;;;;1.51;59.09;100145.19;5035729;28;20029;-75
2021/01/22 02:47:47;;;;;;;70.03;36.60;;;;;;;1.49;59.00;100141.84;5036225;28;20025;-75
2021/01/22 02:50:29;;;;;;;65.77;36.93;;;;;;;1.61;59.23;100150.59;5036285;28;20347;-75
2021/01/22 02:52:58;;;;;;;65.20;34.57;;;;;;;1.58;59.20;100150.78;5036595;28;20427;-75
2021/01/22 02:55:24;;;;;;;67.87;37.73;;;;;;;1.56;59.11;100152.66;5037468;28;20045;-75
2021/01/22 02:58:06;;;;;;;71.93;39.73;;;;;;;1.48;59.13;100142.75;5036351;28;20033;-76
2021/01/22 03:00:36;;;;;;;;;;;;;;;1.42;59.40;100157.97;5039700;28;20033;-77
2021/01/22 03:03:23;;;;;;;80.93;40.33;;;;;;;1.44;59.62;100172.53;5043928;28;20007;-76
2021/01/22 03:05:50;;;;;;;82.37;42.97;;;;;;;1.42;59.57;100166.59;5037446;28;20061;-75
2021/01/22 03:08:20;;;;;;;60.20;35.17;;;;;;;1.43;59.26;100167.44;5037847;28;20025;-75
2021/01/22 03:10:50;;;;;;;62.93;35.93;;;;;;;1.32;59.32;100146.50;5055245;23;20073;-76
2021/01/22 03:13:16;;;;;;;63.90;35.43;;;;;;;1.31;59.49;100148.28;5039452;28;20040;-77
2021/01/22 03:15:42;;;;;;;58.40;34.57;;;;;;;1.35;59.63;100154.94;5040141;28;20039;-75
2021/01/22 03:18:19;;;;;;;55.50;30.73;;;;;;;1.15;59.66;100111.25;5058385;28;20036;-75
2021/01/22 03:20:46;;;;;;;57.80;32.47;;;;;;;1.34;59.76;100137.66;5057333;28;20083;-75
2021/01/22 03:23:15;;;;;;;53.37;30.80;;;;;;;1.39;59.66;100151.19;5058999;28;20033;-75
2021/01/22 03:25:42;;;;;;;53.97;31.63;;;;;;;1.44;59.53;100167.31;5058951;28;20036;-75
2021/01/22 03:28:10;;;;;;;54.73;31.93;;;;;;;1.47;59.90;100167.13;5067883;23;20045;-75
2021/01/22 03:30:37;;;;;;;55.87;29.83;;;;;;;1.45;59.45;100153.38;5071629;23;20324;-75
2021/01/22 03:33:03;;;;;;;48.77;30.03;;;;;;;1.00;59.51;100083.69;5065495;28;20104;-78
2021/01/22 03:35:29;;;;;;;46.80;25.80;;;;;;;1.20;59.65;100128.22;5047027;28;20029;-78
2021/01/22 03:37:56;;;;;;;39.00;25.07;;;;;;;1.44;59.51;100153.47;5064492;28;20055;-77
2021/01/22 03:40:22;;;;;;;46.33;28.00;;;;;;;1.14;59.42;100122.59;5064704;28;20044;-79
2021/01/22 03:45:18;;;;;;;48.20;28.47;;;;;;;1.33;59.58;100153.38;5065389;28;20114;-78
2021/01/22 03:47:44;;;;;;;50.73;30.20;;;;;;;1.04;59.66;100113.75;5066463;28;20036;-78
2021/01/22 03:50:11;;;;;;;48.67;29.00;;;;;;;1.36;59.62;100164.41;5065303;28;20083;-80
2021/01/22 03:52:38;;;;;;;51.83;31.70;;;;;;;1.35;59.42;100167.13;5065096;28;20029;-77
2021/01/22 03:55:06;;;;;;;51.17;28.47;;;;;;;0.19;59.28;99999.00;5065439;28;20126;-78
2021/01/22 03:57:33;;;;;;;39.20;25.40;;;;;;;1.12;59.22;100142.66;5065381;28;20085;-77
2021/01/22 03:59:58;;;;;;;49.17;28.17;;;;;;;1.28;59.48;100174.50;5066415;28;20051;-78
2021/01/22 04:02:25;;;;;;;76.83;39.10;;;;;;;1.23;59.44;100174.81;5047997;28;20072;-77
2021/01/22 04:04:51;;;;;;;60.47;33.63;;;;;;;1.25;59.57;100179.91;5072055;23;20016;-78
2021/01/22 04:07:19;;;;;;;45.73;28.13;;;;;;;1.05;59.62;100157.84;5072698;23;20136;-77
2021/01/22 04:09:45;;;;;;;47.57;27.53;;;;;;;1.23;59.77;100187.00;5066028;28;20034;-78
2021/01/22 04:12:10;;;;;;;45.07;29.20;;;;;;;1.14;59.37;100165.03;5050033;28;20025;-77
2021/01/22 04:14:37;;;;;;;43.27;28.37;;;;;;;1.26;59.50;100181.59;5053364;28;20104;-77
2021/01/22 04:17:06;;;;;;;52.17;31.87;;;;;;;1.12;59.43;100156.50;5066751;28;20029;-78
2021/01/22 04:19:31;;;;;;;55.37;32.30;;;;;;;1.24;59.41;100173.88;5067992;28;20020;-79
2021/01/22 04:21:57;;;;;;;60.50;35.40;;;;;;;1.23;59.52;100181.78;5080335;23;20041;-79
2021/01/22 04:24:22;;;;;;;56.33;34.67;;;;;;;1.03;59.30;100138.09;5065764;28;20029;-79
2021/01/22 04:26:51;;;;;;;59.00;35.23;;;;;;;1.04;59.40;100163.97;5073871;23;20045;-78
2021/01/22 04:29:18;;;;;;;61.97;34.90;;;;;;;0.86;59.46;100123.63;5072375;23;20052;-77
2021/01/22 04:31:44;;;;;;;66.17;37.77;;;;;;;0.63;59.15;100091.31;5066612;28;20032;-77
2021/01/22 04:34:10;;;;;;;59.80;35.97;;;;;;;0.86;58.95;100132.25;5066911;28;20020;-77
2021/01/22 04:36:35;;;;;;;60.63;34.77;;;;;;;1.15;59.73;100168.47;5065989;28;20029;-79
2021/01/22 04:39:05;;;;;;;59.60;34.33;;;;;;;1.20;59.51;100174.19;5074234;23;20067;-77
2021/01/22 04:41:31;;;;;;;54.47;33.57;;;;;;;1.16;59.79;100173.56;5073876;23;20037;-78
2021/01/22 04:44:02;;;;;;;58.40;35.47;;;;;;;1.17;59.44;100170.03;5066751;28;20051;-79
2021/01/22 04:46:33;;;;;;;55.27;33.07;;;;;;;1.16;59.38;100165.75;5049118;28;20044;-78
2021/01/22 04:49:01;;;;;;;79.73;45.57;;;;;;;0.67;59.24;100113.56;5066973;28;20029;-77
2021/01/22 04:51:30;;;;;;;81.47;45.63;;;;;;;0.90;59.68;100140.66;5064501;28;20028;-77
2021/01/22 04:54:04;;;;;;;69.53;41.00;;;;;;;1.04;59.64;100163.97;5067331;28;20079;-77
2021/01/22 04:56:35;;;;;;;82.57;48.27;;;;;;;1.04;59.63;100166.59;5070332;28;20092;-78
2021/01/22 04:59:06;;;;;;;91.40;53.50;;;;;;;0.76;59.56;100113.00;5070974;28;20423;-78
2021/01/22 05:01:33;;;;;;;76.47;45.03;;;;;;;1.09;59.80;100169.72;5077832;23;20115;-78
2021/01/22 05:04:01;;;;;;;78.10;44.50;;;;;;;1.13;59.53;100171.16;5059558;23;20108;-79
2021/01/22 05:06:27;;;;;;;62.03;37.90;;;;;;;1.03;59.08;100148.47;5071099;28;20056;-78
2021/01/22 05:08:53;;;;;;;61.43;35.37;;;;;;;1.11;59.54;100167.84;5071239;28;20036;-78
2021/01/22 05:11:20;;;;;;;54.73;34.17;;;;;;;0.79;59.66;100111.97;5070014;28;20355;-78
2021/01/22 05:13:47;;;;;;;66.33;39.10;;;;;;;1.08;59.54;100172.41;5057141;23;21790;-79
2021/01/22 05:16:16;;;;;;;70.70;38.43;;;;;;;1.10;59.53;100170.53;5059180;23;20029;-77
2021/01/22 05:18:42;;;;;;;64.50;38.23;;;;;;;1.12;59.63;100171.28;5076174;23;20044;-78
2021/01/22 05:21:10;;;;;;;65.23;38.40;;;;;;;1.17;59.63;100174.41;5052541;28;20021;-78
2021/01/22 05:23:38;;;;;;;95.73;49.43;;;;;;;1.21;59.61;100162.84;5059555;23;20044;-77
2021/01/22 05:26:06;;;;;;;115.83;56.47;;;;;;;1.20;59.45;100155.97;5053045;28;20027;-77
2021/01/22 05:28:44;;;;;;;96.53;53.13;;;;;;;1.23;59.75;100153.19;5049064;28;20107;-76
2021/01/22 05:31:12;;;;;;;96.87;53.73;;;;;;;0.97;59.33;100110.72;5058985;28;20017;-75
2021/01/22 05:33:39;;;;;;;97.30;53.07;;;;;;;1.27;59.44;100162.44;5057512;28;20025;-75
2021/01/22 05:36:22;;;;;;;96.30;53.23;;;;;;;1.26;59.64;100174.59;5057560;28;20395;-74
2021/01/22 05:38:47;;;;;;;;;;;;;;;1.17;59.77;100177.84;5058419;28;20451;-76
2021/01/22 05:41:12;;;;;;;98.87;52.17;;;;;;;1.10;59.53;100140.16;5058072;28;20000;-75
2021/01/22 05:43:38;;;;;;;101.93;57.37;;;;;;;1.38;59.40;100166.91;5061181;28;20021;-76
2021/01/22 05:46:11;;;;;;;101.53;58.73;;;;;;;1.40;59.70;100128.63;5060468;28;20028;-75
2021/01/22 05:48:37;;;;;;;103.77;57.57;;;;;;;1.68;59.08;100162.22;5065488;28;20025;-77
2021/01/22 05:51:02;;;;;;;106.57;57.67;;;;;;;1.68;58.80;100156.19;5080821;23;20037;-78
2021/01/22 05:53:29;;;;;;;109.17;62.77;;;;;;;1.64;59.03;100150.38;5053822;28;20036;-77
2021/01/22 05:56:15;;;;;;;104.80;59.80;;;;;;;1.65;59.42;100133.81;5077646;23;20037;-78
2021/01/22 05:59:04;;;;;;;134.13;72.63;;;;;;;1.78;58.64;100145.03;5071725;28;20044;-79
2021/01/22 06:01:32;;;;;;;127.43;71.93;;;;;;;1.82;58.74;100149.09;5076103;23;20045;-79
2021/01/22 06:04:07;;;;;;;129.83;73.77;;;;;;;1.73;58.79;100121.09;5071701;28;20029;-77
2021/01/22 06:06:36;;;;;;;122.67;73.87;;;;;;;1.84;58.47;100141.16;5061087;23;20049;-77
2021/01/22 06:09:05;;;;;;;120.33;75.00;;;;;;;1.82;58.59;100146.47;5057299;23;20107;-77
2021/01/22 06:11:38;;;;;;;137.20;79.57;;;;;;;0.70;58.56;99959.22;5059493;23;20047;-78
2021/01/22 06:14:06;;;;;;;146.27;83.37;;;;;;;1.75;58.77;100116.63;5031925;28;20416;-78
2021/01/22 06:19:10;;;;;;;;;;;;;;;1.68;59.46;100133.59;5070021;28;20061;-78
2021/01/22 06:21:43;;;;;;;164.40;87.20;;;;;;;1.26;58.88;100073.16;5071635;28;19979;-77
2021/01/22 06:24:09;;;;;;;175.97;97.27;;;;;;;1.79;58.86;100151.06;5076578;23;20045;-78
2021/01/22 06:26:40;;;;;;;161.97;91.03;;;;;;;1.69;58.76;100137.88;5073986;23;20068;-77
2021/01/22 06:29:08;;;;;;;146.03;77.47;;;;;;;1.73;58.85;100159.31;5068272;28;20041;-79
2021/01/22 06:34:08;;;;;;;109.13;63.50;;;;;;;1.73;58.92;100147.13;5089001;28;20059;-77
2021/01/22 06:39:10;;;;;;;132.60;74.73;;;;;;;1.52;58.79;100112.19;4115078;26;20045;-78
2021/01/22 06:41:43;;;;;;;122.97;69.07;;;;;;;1.76;59.13;100146.06;5052629;28;20055;-78
2021/01/22 06:44:10;;;;;;;;;;;;;;;1.69;59.53;100150.06;5058534;28;20022;-80
2021/01/22 06:46:38;;;;;;;115.63;63.60;;;;;;;1.82;59.03;100143.03;5072744;23;19921;-79
2021/01/22 06:49:05;;;;;;;131.20;68.53;;;;;;;1.86;59.00;100147.09;5045219;28;20021;-77
2021/01/22 06:51:36;;;;;;;119.43;66.93;;;;;;;1.88;59.10;100153.03;5083382;23;20071;-81
2021/01/22 06:54:16;;;;;;;100.55;58.53;;;;;;;1.88;58.96;100153.84;5067793;28;20041;-77
2021/01/22 06:57:05;;;;;;;94.67;51.13;;;;;;;1.86;59.39;100147.94;5068190;28;20025;-79
2021/01/22 06:59:39;;;;;;;82.03;49.33;;;;;;;1.80;59.00;100143.16;5089262;23;20064;-76
2021/01/22 07:02:32;;;;;;;78.80;48.53;;;;;;;1.71;59.41;100143.78;5044732;28;20066;-76
2021/01/22 07:04:58;;;;;;;;;;;;;;;1.65;60.43;100154.63;5038122;23;20049;-79
2021/01/22 07:07:50;;;;;;;88.20;50.73;;;;;;;1.82;59.55;100145.66;5014817;28;19913;-79
2021/01/22 07:10:17;;;;;;;67.82;41.50;;;;;;;1.56;59.39;100098.84;5048528;28;20018;-76
2021/01/22 07:12:49;;;;;;;101.47;57.93;;;;;;;1.94;59.39;100149.16;5046014;28;20088;-78
2021/01/22 07:15:28;;;;;;;97.70;59.13;;;;;;;1.98;59.47;100142.78;5068222;23;20053;-76
2021/01/22 07:18:00;;;;;;;104.43;61.90;;;;;;;2.07;59.11;100136.94;5061449;28;20335;-76
2021/01/22 07:20:29;;;;;;;112.45;64.50;;;;;;;2.17;58.83;100140.53;5071240;23;20132;-79
2021/01/22 07:23:00;;;;;;;121.60;65.63;;;;;;;2.12;58.63;100120.03;5067017;23;20132;-76
2021/01/22 07:25:42;;;;;;;119.73;65.53;;;;;;;2.20;58.84;100133.34;5048966;23;20448;-77
2021/01/22 07:28:25;;;;;;;127.38;69.53;;;;;;;2.22;58.73;100141.88;5031999;28;20087;-77
2021/01/22 07:30:50;;;;;;;118.97;64.80;;;;;;;2.26;58.70;100159.91;5040585;28;20036;-77
2021/01/22 07:34:11;;;;;;;118.87;69.30;;;;;;;2.29;58.76;100129.25;5053527;23;20128;-78
2021/01/22 07:36:49;;;;;;;150.90;86.93;;;;;;;2.13;58.69;100092.22;5044304;28;20079;-78
2021/01/22 07:39:16;;;;;;;189.47;105.63;;;;;;;2.39;58.84;100129.44;5046247;28;20056;-76
2021/01/22 07:41:41;;;;;;;163.80;92.87;;;;;;;2.27;58.56;100123.34;5070191;23;20028;-76
2021/01/22 07:44:12;;;;;;;164.70;94.07;;;;;;;2.47;58.73;100130.53;5071382;23;20041;-78
2021/01/22 07:46:45;;;;;;;111.43;64.97;;;;;;;2.41;58.90;100124.94;5070025;23;20135;-76
2021/01/22 07:49:13;;;;;;;126.43;74.60;;;;;;;2.61;58.60;100129.53;5068862;23;20052;-79
2021/01/22 07:51:39;;;;;;;125.47;73.10;;;;;;;2.44;58.82;100075.19;5044541;28;20059;-75
2021/01/22 07:54:05;;;;;;;128.57;76.63;;;;;;;2.68;58.43;100104.66;5061979;28;20037;-75
2021/01/22 07:56:40;;;;;;;129.63;74.47;;;;;;;2.83;58.60;100119.16;5046728;28;20067;-77
2021/01/22 07:59:09;;;;;;;114.63;69.10;;;;;;;2.90;58.77;100109.09;5052359;28;20025;-77
2021/01/22 08:01:40;;;;;;;116.87;68.03;;;;;;;3.01;58.81;100114.38;5068704;23;20136;-76
2021/01/22 08:04:07;;;;;;;113.50;70.30;;;;;;;3.11;58.38;100109.28;5047488;28;20048;-77
2021/01/22 08:06:53;;;;;;;129.47;71.60;;;;;;;3.16;58.91;100117.59;5060801;28;20445;-76
2021/01/22 08:09:20;;;;;;;117.90;69.20;;;;;;;3.24;58.20;100127.44;5070155;23;20056;-77
2021/01/22 08:12:12;;;;;;;110.27;66.57;;;;;;;3.23;58.61;100092.69;5070519;23;20048;-77
2021/01/22 08:14:44;;;;;;;117.35;66.53;;;;;;;3.50;58.21;100110.59;5068671;23;20094;-77
2021/01/22 08:17:33;;;;;;;105.38;63.90;;;;;;;3.59;58.60;100114.28;5056420;23;20058;-76
2021/01/22 08:20:06;;;;;;;95.37;60.63;;;;;;;3.68;58.13;100114.41;5019304;23;20401;-77
2021/01/22 08:24:58;;;;;;;112.32;66.43;;;;;;;3.78;57.89;100117.97;5074847;23;20045;-76
2021/01/22 08:27:24;;;;;;;119.97;71.60;;;;;;;3.81;57.71;100122.97;5078454;23;20037;-78
2021/01/22 08:29:58;;;;;;;144.90;85.47;;;;;;;3.75;57.92;100093.88;5053756;28;20427;-76
2021/01/22 08:32:24;;;;;;;163.50;101.13;;;;;;;3.86;57.97;100119.16;5063551;23;20132;-78
2021/01/22 08:34:51;;;;;;;165.80;104.20;;;;;;;3.84;57.81;100111.44;5074426;23;20064;-76
2021/01/22 08:37:24;;;;;;;169.23;103.40;;;;;;;3.85;58.34;100107.03;5051987;28;20040;-76
2021/01/22 08:39:58;;;;;;;162.73;102.10;;;;;;;3.77;58.22;100124.16;5067027;28;20089;-76
2021/01/22 08:42:28;;;;;;;175.07;105.07;;;;;;;3.33;58.03;100017.13;5070512;23;20052;-76
2021/01/22 08:47:33;;;;;;;172.90;104.33;;;;;;;3.90;58.54;100100.50;5072708;23;20056;-76
2021/01/22 08:50:02;;;;;;;177.13;109.37;;;;;;;3.92;58.66;100089.94;5072289;23;20049;-76
2021/01/22 08:52:31;;;;;;;186.70;112.13;;;;;;;3.95;58.11;100105.34;5041283;28;20036;-76
2021/01/22 08:54:59;;;;;;;191.17;109.33;;;;;;;3.78;58.00;100063.13;5070922;23;20045;-75
2021/01/22 08:57:31;;;;;;;196.17;115.40;;;;;;;4.07;58.32;100091.31;5060307;23;20421;-76
2021/01/22 08:59:59;;;;;;;199.20;116.43;;;;;;;4.11;58.03;100095.34;5038226;28;20033;-76
2021/01/22 09:02:46;;;;;;;197.03;118.20;;;;;;;4.15;58.41;100081.06;5142402;23;20417;-75
2021/01/22 09:05:21;;;;;;;190.23;113.77;;;;;;;3.70;58.06;100008.03;5075330;23;20452;-76
2021/01/22 09:08:08;;;;;;;205.80;121.97;;;;;;;4.17;58.20;100068.72;5070310;23;20048;-76
2021/01/22 09:13:17;;;;;;;189.43;112.37;;;;;;;4.37;58.25;100072.31;4854225;26;20061;-78
2021/01/22 09:15:45;;;;;;;184.87;112.00;;;;;;;4.39;58.48;100079.09;5079476;23;20447;-76
2021/01/22 09:18:18;;;;;;;202.23;118.30;;;;;;;4.21;58.60;100033.53;5064337;28;20029;-75
2021/01/22 09:21:24;;;;;;;187.33;114.97;;;;;;;4.58;58.04;100052.28;5072791;28;20487;-75
2021/01/22 09:23:59;;;;;;;189.27;113.33;;;;;;;4.65;58.14;100045.59;5086952;23;21321;-75
2021/01/22 09:26:33;;;;;;;175.10;107.23;;;;;;;4.74;58.20;100054.44;5068902;23;20099;-75
2021/01/22 09:29:02;;;;;;;162.30;93.67;;;;;;;4.86;58.24;100047.34;5074588;23;20041;-75
2021/01/22 09:33:55;;;;;;;158.65;94.80;;;;;;;5.04;58.05;100044.00;5127859;23;20017;-76
2021/01/22 09:36:25;;;;;;;157.03;94.23;;;;;;;4.54;57.89;99955.91;5049043;28;20060;-75
2021/01/22 09:38:51;;;;;;;145.40;88.80;;;;;;;5.20;57.67;100038.31;5062513;23;20045;-75
2021/01/22 09:41:22;;;;;;;143.30;86.03;;;;;;;5.29;57.80;100045.38;5076831;23;20081;-75
2021/01/22 09:43:49;;;;;;;127.97;75.72;;;;;;;5.36;57.46;100035.22;5076016;23;20045;-75
2021/01/22 09:46:19;;;;;;;132.90;79.97;;;;;;;5.45;57.38;100016.09;4953686;23;3071401;-76
2021/01/22 09:49:01;;;;;;;119.63;72.97;;;;;;;5.53;57.54;100011.00;5077322;23;20065;-77
2021/01/22 09:51:38;;;;;;;107.07;65.67;;;;;;;5.64;57.40;100007.44;5070999;28;20458;-76
2021/01/22 09:54:05;;;;;;;95.73;57.40;;;;;;;5.72;57.22;100004.97;5076039;23;20053;-78
2021/01/22 09:56:33;;;;;;;92.07;57.77;;;;;;;5.50;56.78;99953.66;5060816;23;20037;-75
2021/01/22 09:59:00;;;;;;;95.43;59.17;;;;;;;5.82;57.15;99984.84;5069712;28;20037;-77
2021/01/22 10:04:01;;;;;;;96.80;56.50;;;;;;;6.08;57.00;99976.50;5068874;28;20045;-77
2021/01/22 10:08:53;;;;;;;88.84;54.10;;;;;;;6.26;56.95;99966.97;5064944;23;20060;-80
2021/01/22 10:11:21;;;;;;;86.60;51.63;;;;;;;6.23;56.41;99928.75;5066366;28;20111;-80
2021/01/22 10:13:58;;;;;;;94.53;53.57;;;;;;;6.41;56.29;99959.50;5067395;28;20037;-86
2021/01/22 10:16:26;;;;;;;89.87;51.13;;;;;;;6.11;56.29;99887.91;5058266;28;20423;-84
2021/01/22 10:18:53;;;;;;;89.57;50.77;;;;;;;6.72;56.20;99939.13;5056695;28;20033;-82
2021/01/22 10:21:23;;;;;;;85.93;50.07;;;;;;;6.77;56.17;99931.66;5038468;28;20033;-83
2021/01/22 10:23:50;;;;;;;85.63;50.53;;;;;;;6.88;55.83;99945.41;5053941;28;20084;-87
2021/01/22 10:26:17;;;;;;;81.77;46.57;;;;;;;6.98;55.95;99925.19;5055771;28;20037;-87
2021/01/22 10:28:43;;;;;;;78.90;47.57;;;;;;;7.05;55.75;99912.31;5053231;28;20178;-89
2021/01/22 10:31:09;;;;;;;79.43;48.13;;;;;;;7.05;55.77;99914.94;5055731;28;20063;-86
2021/01/22 10:33:35;;;;;;;74.63;45.87;;;;;;;6.23;56.09;99766.19;5056475;28;20033;-85
2021/01/22 10:36:00;;;;;;;80.07;49.63;;;;;;;7.30;55.95;99926.53;5055663;28;20075;-86
2021/01/22 10:38:27;;;;;;;79.47;46.83;;;;;;;7.17;55.94;99891.94;5051057;28;20029;-84
2021/01/22 10:40:53;;;;;;;76.30;46.63;;;;;;;7.28;55.95;99883.84;5036508;28;20244;-83
2021/01/22 10:43:19;;;;;;;86.43;51.70;;;;;;;7.37;56.14;99900.50;5035483;28;20075;-85
2021/01/22 10:45:44;;;;;;;75.90;44.60;;;;;;;7.16;55.61;99845.66;5036381;28;20064;-80
2021/01/22 10:48:10;;;;;;;72.33;45.37;;;;;;;7.33;55.60;99853.53;5035253;28;20112;-87
2021/01/22 10:50:36;;;;;;;72.70;45.33;;;;;;;7.48;55.67;99866.19;5023016;28;20076;-80
2021/01/22 10:53:01;;;;;;;72.03;42.73;;;;;;;7.17;55.97;99813.16;5016883;28;20174;-86
2021/01/22 10:55:26;;;;;;;63.17;40.30;;;;;;;7.17;55.94;99810.53;5035226;28;20040;-80
2021/01/22 10:57:52;;;;;;;68.23;41.47;;;;;;;7.63;56.21;99859.41;5035459;28;20080;-87
2021/01/22 11:00:18;;;;;;;59.93;38.97;;;;;;;7.77;56.13;99865.94;5036751;28;20025;-85
2021/01/22 11:02:43;;;;;;;61.07;40.47;;;;;;;7.25;55.44;99779.91;5035323;28;20068;-88
2021/01/22 11:05:09;;;;;;;65.90;43.03;;;;;;;7.68;55.39;99841.38;5052265;28;20055;-83
2021/01/22 11:07:34;;;;;;;66.27;42.13;;;;;;;7.76;56.29;99848.50;5053452;28;20098;-84
2021/01/22 11:10:00;;;;;;;60.67;39.00;;;;;;;7.73;55.91;99844.38;5055044;28;20033;-83
2021/01/22 11:12:25;;;;;;;61.00;37.60;;;;;;;7.76;55.85;99835.38;5054924;28;20419;-81
2021/01/22 11:14:51;;;;;;;57.20;36.63;;;;;;;7.79;56.18;99835.88;5028220;28;20025;-87
2021/01/22 11:17:16;;;;;;;55.20;35.00;;;;;;;7.84;56.48;99851.19;5017407;28;20017;-87
2021/01/22 11:19:42;;;;;;;57.10;32.87;;;;;;;7.94;56.61;99825.63;5035123;28;20040;-87
2021/01/22 11:22:08;;;;;;;52.27;33.60;;;;;;;7.89;55.89;99801.63;5020797;28;20348;-83
2021/01/22 11:24:36;;;;;;;51.83;32.47;;;;;;;7.54;56.73;99729.78;5025864;28;20068;-85
2021/01/22 11:27:01;;;;;;;54.77;35.67;;;;;;;8.13;56.00;99811.47;5035044;28;20108;-90
2021/01/22 11:29:27;;;;;;;57.00;35.37;;;;;;;7.42;56.38;99699.44;5030436;28;20169;-85
2021/01/22 11:31:52;;;;;;;56.07;33.47;;;;;;;7.73;56.00;99748.94;5054419;28;20312;-85
2021/01/22 11:34:18;;;;;;;56.07;36.77;;;;;;;7.73;56.46;99714.78;5054547;28;20091;-84
2021/01/22 11:36:43;;;;;;;59.70;38.23;;;;;;;8.21;55.45;99787.88;5043365;28;20034;-86
2021/01/22 11:39:09;;;;;;;58.10;39.13;;;;;;;8.32;55.76;99797.28;5020411;28;20455;-88
2021/01/22 11:41:34;;;;;;;63.60;39.53;;;;;;;8.15;55.79;99768.25;5008181;28;20136;-84
2021/01/22 11:43:59;;;;;;;65.63;40.27;;;;;;;8.35;55.77;99802.25;5028007;28;20048;-85
2021/01/22 11:46:25;;;;;;;62.73;42.33;;;;;;;8.35;55.70;99787.31;5033060;28;20064;-84
2021/01/22 11:48:50;;;;;;;64.27;38.87;;;;;;;7.67;55.74;99673.34;5030354;28;20431;-87
2021/01/22 11:51:16;;;;;;;52.97;34.73;;;;;;;7.79;55.26;99707.09;5040193;28;20423;-83